createdAt,value
2017-10-17T19:51:36.612Z,13.2
2017-10-17T19:52:35.917Z,13.2
2017-10-17T19:53:35.396Z,13.2
2017-10-17T19:54:34.622Z,13.2
2017-10-17T19:55:33.691Z,13.2
2017-10-17T19:56:32.536Z,13.2
2017-10-17T19:57:32.088Z,13.2
2017-10-17T19:58:31.718Z,13.2
2017-10-17T19:59:30.614Z,13.2
2017-10-17T20:00:30.109Z,13.1
2017-10-17T20:01:28.828Z,13.1
2017-10-17T20:02:28.158Z,13.1
2017-10-17T20:03:28.073Z,13.1
2017-10-17T20:04:26.347Z,13.1
2017-10-17T20:05:26.146Z,13.1
2017-10-17T20:06:25.083Z,13.1
2017-10-17T20:07:24.264Z,13.1
2017-10-17T20:08:23.794Z,13.1
2017-10-17T20:09:22.924Z,13.1
2017-10-17T20:10:21.727Z,13.1
2017-10-17T20:11:21.361Z,13
2017-10-17T20:12:20.976Z,13
2017-10-17T20:13:19.544Z,13
2017-10-17T20:14:18.569Z,13
2017-10-17T20:15:17.822Z,13
2017-10-17T20:16:16.927Z,13
2017-10-17T20:17:16.225Z,13
2017-10-17T20:18:15.894Z,13
2017-10-17T20:19:15.093Z,13
2017-10-17T20:20:14.109Z,13
2017-10-17T20:22:12.635Z,13
2017-10-17T20:23:12.097Z,12.9
2017-10-17T20:24:10.640Z,12.9
2017-10-17T20:25:10.543Z,12.9
2017-10-17T20:26:09.571Z,12.9
2017-10-17T20:27:08.921Z,12.9
2017-10-17T20:28:08.120Z,12.9
2017-10-17T20:29:06.763Z,12.9
2017-10-17T20:30:05.972Z,12.9
2017-10-17T20:31:05.465Z,12.9
2017-10-17T20:32:04.782Z,12.9
2017-10-17T20:33:03.923Z,12.8
2017-10-17T20:34:03.059Z,12.8
2017-10-17T20:35:02.784Z,12.8
2017-10-17T20:36:01.491Z,12.8
2017-10-17T20:37:00.734Z,12.8
2017-10-17T20:38:00.173Z,12.8
2017-10-17T20:38:59.401Z,12.8
2017-10-17T20:39:58.769Z,12.8
2017-10-17T20:40:57.747Z,12.8
2017-10-17T20:41:57.144Z,12.8
2017-10-17T20:42:56.040Z,12.8
2017-10-17T20:43:55.110Z,12.8
2017-10-17T20:44:54.482Z,12.7
2017-10-17T20:45:54.202Z,12.7
2017-10-17T20:46:53.213Z,12.7
2017-10-17T20:47:52.460Z,12.7
2017-10-17T20:48:51.167Z,12.7
2017-10-17T20:49:50.451Z,12.7
2017-10-17T20:50:49.497Z,12.7
2017-10-17T20:51:48.666Z,12.7
2017-10-17T20:52:48.065Z,12.7
2017-10-17T20:53:47.327Z,12.7
2017-10-17T20:54:46.661Z,12.7
2017-10-17T20:55:45.957Z,12.7
2017-10-17T20:56:44.983Z,12.7
2017-10-17T20:57:44.191Z,12.7
2017-10-17T20:59:42.463Z,12.6
2017-10-17T21:01:40.882Z,12.6
2017-10-17T21:02:40.181Z,12.6
2017-10-17T21:03:39.590Z,12.6
2017-10-17T21:04:39.110Z,12.6
2017-10-17T21:05:38.091Z,12.6
2017-10-17T21:06:37.258Z,12.6
2017-10-17T21:07:36.655Z,12.6
2017-10-17T21:08:35.246Z,12.6
2017-10-17T21:10:33.957Z,12.6
2017-10-17T21:11:33.357Z,12.5
2017-10-17T21:12:32.657Z,12.5
2017-10-17T21:13:31.914Z,12.5
2017-10-17T21:14:31.039Z,12.5
2017-10-17T21:15:30.049Z,12.5
2017-10-17T21:16:28.928Z,12.5
2017-10-17T21:17:28.510Z,12.5
2017-10-17T21:18:27.674Z,12.5
2017-10-17T21:19:26.863Z,12.5
2017-10-17T21:20:25.775Z,12.5
2017-10-17T21:21:25.352Z,12.5
2017-10-17T21:22:24.553Z,12.5
2017-10-17T21:23:23.453Z,12.5
2017-10-17T21:24:22.886Z,12.5
2017-10-17T21:25:21.898Z,12.5
2017-10-17T21:26:21.035Z,12.5
2017-10-17T21:27:20.526Z,12.5
2017-10-17T21:28:19.576Z,12.5
2017-10-17T21:29:18.401Z,12.5
2017-10-17T21:30:18.535Z,12.4
2017-10-17T21:31:17.151Z,12.4
2017-10-17T21:32:16.229Z,12.4
2017-10-17T21:33:15.460Z,12.4
2017-10-17T21:34:15.208Z,12.4
2017-10-17T21:35:13.712Z,12.4
2017-10-17T21:35:44.777Z,12.4
2017-10-17T21:36:15.202Z,12.4
2017-10-17T21:36:45.421Z,12.4
2017-10-17T21:37:15.854Z,12.4
2017-10-17T21:38:11.482Z,12.4
2017-10-17T21:39:10.818Z,12.4
2017-10-17T21:40:09.533Z,12.4
2017-10-17T21:41:09.272Z,12.4
2017-10-17T21:42:08.637Z,12.4
2017-10-17T21:43:07.644Z,12.4
2017-10-17T21:44:06.892Z,12.4
2017-10-17T21:47:04.155Z,12.5
2017-10-17T21:48:03.751Z,12.5
2017-10-17T21:49:02.679Z,12.6
2017-10-17T21:50:01.921Z,12.7
2017-10-17T21:51:01.315Z,12.7
2017-10-17T21:52:00.672Z,12.8
2017-10-17T21:52:59.269Z,12.8
2017-10-17T21:53:58.944Z,12.8
2017-10-17T21:54:58.093Z,12.9
2017-10-17T21:55:57.565Z,12.9
2017-10-17T21:56:56.307Z,13
2017-10-17T21:58:54.776Z,13
2017-10-17T21:59:53.949Z,13
2017-10-17T22:00:53.428Z,13
2017-10-17T22:01:52.600Z,13.1
2017-10-17T22:02:51.781Z,13.1
2017-10-17T22:03:50.853Z,13.1
2017-10-17T22:04:49.921Z,13.1
2017-10-17T22:05:49.397Z,13.1
2017-10-17T22:06:48.870Z,13.1
2017-10-17T22:07:47.702Z,13.1
2017-10-17T22:08:47.031Z,13.1
2017-10-17T22:09:45.726Z,13.1
2017-10-17T22:10:45.429Z,13.2
2017-10-17T22:11:44.894Z,13.2
2017-10-17T22:12:43.595Z,13.2
2017-10-17T22:13:43.064Z,13.2
2017-10-17T22:14:41.902Z,13.2
2017-10-17T22:15:41.240Z,13.2
2017-10-17T22:16:40.712Z,13.2
2017-10-17T22:17:39.413Z,13.2
2017-10-17T22:18:38.477Z,13.2
2017-10-17T22:19:37.939Z,13.2
2017-10-17T22:20:37.540Z,13.2
2017-10-17T22:21:36.098Z,13.2
2017-10-17T22:22:36.205Z,13.2
2017-10-17T22:23:35.322Z,13.2
2017-10-17T22:24:34.428Z,13.2
2017-10-17T22:25:33.258Z,13.2
2017-10-17T22:26:32.724Z,13.2
2017-10-17T22:27:32.006Z,13.2
2017-10-17T22:28:30.710Z,13.2
2017-10-17T22:29:30.188Z,13.2
2017-10-17T22:30:29.287Z,13.2
2017-10-17T22:31:29.319Z,13.2
2017-10-17T22:32:27.509Z,13.2
2017-10-17T22:33:26.453Z,13.2
2017-10-17T22:34:26.181Z,13.2
2017-10-17T22:35:25.386Z,13.2
2017-10-17T22:36:24.847Z,13.2
2017-10-17T22:37:23.685Z,13.2
2017-10-17T22:38:23.016Z,13.2
2017-10-17T22:39:22.369Z,13.2
2017-10-17T22:40:21.346Z,13.2
2017-10-17T22:41:20.295Z,13.2
2017-10-17T22:42:19.913Z,13.2
2017-10-17T22:43:18.614Z,13.2
2017-10-17T22:44:18.320Z,13.2
2017-10-17T22:45:17.150Z,13.2
2017-10-17T22:46:16.488Z,13.2
2017-10-17T22:48:14.719Z,13.2
2017-10-17T22:49:13.780Z,13.2
2017-10-17T22:50:13.358Z,13.1
2017-10-17T22:51:12.707Z,13.1
2017-10-17T22:52:11.778Z,13.1
2017-10-17T22:53:11.239Z,13.1
2017-10-17T22:54:09.805Z,13.1
2017-10-17T22:55:09.649Z,13.1
2017-10-17T22:56:08.475Z,13.1
2017-10-17T22:57:07.673Z,13.1
2017-10-17T22:58:07.015Z,13.1
2017-10-17T22:59:06.620Z,13
2017-10-17T23:00:05.599Z,13
2017-10-17T23:01:04.434Z,13
2017-10-17T23:02:03.380Z,13
2017-10-17T23:03:03.221Z,13
2017-10-17T23:04:02.193Z,13
2017-10-17T23:05:01.660Z,13
2017-10-17T23:06:01.001Z,13
2017-10-17T23:07:00.095Z,13
2017-10-17T23:07:58.796Z,13
2017-10-17T23:08:58.289Z,13
2017-10-17T23:09:57.498Z,13
2017-10-17T23:10:56.833Z,13
2017-10-17T23:11:55.397Z,13
2017-10-17T23:12:54.963Z,13
2017-10-17T23:13:54.429Z,13
2017-10-17T23:14:53.763Z,13
2017-10-17T23:15:52.592Z,13
2017-10-17T23:16:51.791Z,12.9
2017-10-17T23:17:51.117Z,12.9
2017-10-17T23:18:50.329Z,12.9
2017-10-17T23:19:49.540Z,12.9
2017-10-17T23:20:48.741Z,12.9
2017-10-17T23:21:47.819Z,12.9
2017-10-17T23:22:47.031Z,12.9
2017-10-17T23:23:46.230Z,12.9
2017-10-17T23:24:45.707Z,12.9
2017-10-17T23:25:44.683Z,12.9
2017-10-17T23:26:43.753Z,12.9
2017-10-17T23:27:42.824Z,12.9
2017-10-17T23:28:42.667Z,12.9
2017-10-17T23:29:41.638Z,12.9
2017-10-17T23:30:40.717Z,12.9
2017-10-17T23:31:39.915Z,12.9
2017-10-17T23:32:39.513Z,12.8
2017-10-17T23:34:37.733Z,12.8
2017-10-17T23:35:36.578Z,12.8
2017-10-17T23:36:36.178Z,12.8
2017-10-17T23:37:35.252Z,12.8
2017-10-17T23:38:34.321Z,12.8
2017-10-17T23:39:33.785Z,12.8
2017-10-17T23:40:32.744Z,12.8
2017-10-17T23:42:31.335Z,12.8
2017-10-17T23:43:30.666Z,12.8
2017-10-17T23:44:29.639Z,12.8
2017-10-17T23:45:28.711Z,12.7
2017-10-17T23:46:28.045Z,12.7
2017-10-17T23:47:27.267Z,12.7
2017-10-17T23:48:26.468Z,12.7
2017-10-17T23:49:25.550Z,12.7
2017-10-17T23:50:24.889Z,12.7
2017-10-17T23:51:24.225Z,12.6
2017-10-17T23:52:23.558Z,12.6
2017-10-17T23:53:22.126Z,12.6
2017-10-17T23:54:21.830Z,12.6
2017-10-17T23:55:21.172Z,12.6
2017-10-17T23:56:20.130Z,12.6
2017-10-17T23:57:19.728Z,12.6
2017-10-17T23:58:18.431Z,12.6
